Time;durP1;ratioP1;P1;durP2;ratioP2;P2;SDS_P1;SDS_P2;PMS_P1;PMS_P2;Temp;Humidity;BMP_temperature;BMP_pressure;BME280_temperature;BME280_humidity;BME280_pressure;Samples;Min_cycle;Max_cycle;Signal;HPM_P1;HPM_P2
2022/02/08 00:00:39;;;;;;;15.98;2.03;;;;;;;;;;5070314;28;20077;-48
2022/02/08 00:03:05;;;;;;;7.53;1.88;;;;;;;;;;5060383;28;20029;-49
2022/02/08 00:05:31;;;;;;;7.07;1.38;;;;;;;;;;5072358;28;20043;-46
2022/02/08 00:07:57;;;;;;;11.30;2.60;;;;;;;;;;5073654;28;20028;-45
2022/02/08 00:10:26;;;;;;;3.67;1.55;;;;;;;;;;5073279;28;20059;-46
2022/02/08 00:12:52;;;;;;;11.00;1.70;;;;;;;;;;5072820;28;20032;-49
2022/02/08 00:15:18;;;;;;;7.70;1.27;;;;;;;;;;5063946;28;20033;-47
2022/02/08 00:17:44;;;;;;;3.75;1.20;;;;;;;;;;5073302;28;20024;-47
2022/02/08 00:20:11;;;;;;;13.18;1.80;;;;;;;;;;5070506;28;20024;-46
2022/02/08 00:22:37;;;;;;;5.13;1.92;;;;;;;;;;5069565;28;20097;-46
2022/02/08 00:25:04;;;;;;;11.18;2.05;;;;;;;;;;5068280;28;20032;-46
2022/02/08 00:27:30;;;;;;;10.75;2.85;;;;;;;;;;5066961;28;20032;-46
2022/02/08 00:29:56;;;;;;;9.02;1.70;;;;;;;;;;5072475;28;20041;-46
2022/02/08 00:32:22;;;;;;;11.30;1.73;;;;;;;;;;5070587;28;20033;-46
2022/02/08 00:34:48;;;;;;;11.73;1.92;;;;;;;;;;5072891;28;20423;-45
2022/02/08 00:37:15;;;;;;;8.88;1.30;;;;;;;;;;5063453;28;20024;-47
2022/02/08 00:39:41;;;;;;;9.20;1.42;;;;;;;;;;5072905;28;20470;-48
2022/02/08 00:42:09;;;;;;;5.25;1.50;;;;;;;;;;5068176;28;20029;-46
2022/02/08 00:44:51;;;;;;;9.25;1.85;;;;;;;;;;5073007;28;20082;-45
2022/02/08 00:47:31;;;;;;;4.90;1.45;;;;;;;;;;5056518;28;20029;-47
2022/02/08 00:50:05;;;;;;;9.20;1.70;;;;;;;;;;5072125;28;20040;-45
2022/02/08 00:52:32;;;;;;;5.80;1.13;;;;;;;;;;5072082;28;20393;-47
2022/02/08 00:54:58;;;;;;;10.88;1.42;;;;;;;;;;5076030;28;20131;-46
2022/02/08 00:57:24;;;;;;;7.88;1.65;;;;;;;;;;5072295;28;20512;-46
2022/02/08 00:59:49;;;;;;;7.68;1.20;;;;;;;;;;5063796;28;20143;-46
2022/02/08 01:02:15;;;;;;;8.52;1.33;;;;;;;;;;5068916;28;20138;-46
2022/02/08 01:04:47;;;;;;;7.70;1.30;;;;;;;;;;5066956;28;20131;-46
2022/02/08 01:07:13;;;;;;;6.07;1.73;;;;;;;;;;5065828;28;20416;-47
2022/02/08 01:09:52;;;;;;;8.68;1.38;;;;;;;;;;5070910;28;20071;-46
2022/02/08 01:12:18;;;;;;;6.57;1.50;;;;;;;;;;5069409;28;20532;-46
2022/02/08 01:14:47;;;;;;;8.30;2.00;;;;;;;;;;5072164;28;20027;-46
2022/02/08 01:17:14;;;;;;;6.72;1.85;;;;;;;;;;5072366;28;20039;-45
2022/02/08 01:19:48;;;;;;;5.30;1.27;;;;;;;;;;5072458;28;20383;-46
2022/02/08 01:22:14;;;;;;;11.13;1.70;;;;;;;;;;5069084;28;20025;-46
2022/02/08 01:24:42;;;;;;;12.10;1.42;;;;;;;;;;5058951;28;20036;-45
2022/02/08 01:27:11;;;;;;;11.15;1.88;;;;;;;;;;5058105;28;20097;-45
2022/02/08 01:29:41;;;;;;;11.77;2.20;;;;;;;;;;5059583;28;20067;-46
2022/02/08 01:35:11;;;;;;;5.57;1.85;;;;;;;;;;5063750;28;20035;-45
2022/02/08 01:37:48;;;;;;;9.85;2.55;;;;;;;;;;5060424;28;20503;-46
2022/02/08 01:40:27;;;;;;;3.10;1.13;;;;;;;;;;5072353;28;20027;-46
2022/02/08 01:48:39;;;;;;;11.77;1.77;;;;;;;;;;5069046;28;20043;-45
2022/02/08 01:51:02;;;;;;;11.45;2.33;;;;;;;;;;5061862;28;20037;-46
2022/02/08 01:53:29;;;;;;;5.70;2.20;;;;;;;;;;5066663;28;20055;-45
2022/02/08 01:55:55;;;;;;;9.05;2.13;;;;;;;;;;5067716;28;20031;-46
2022/02/08 01:58:21;;;;;;;11.02;2.00;;;;;;;;;;5061270;28;20112;-46
2022/02/08 02:00:47;;;;;;;5.65;1.58;;;;;;;;;;5069739;28;20090;-46
2022/02/08 02:03:13;;;;;;;10.70;1.40;;;;;;;;;;5067226;28;20516;-46
2022/02/08 02:05:39;;;;;;;8.18;1.90;;;;;;;;;;5067916;28;20085;-46
2022/02/08 02:08:05;;;;;;;11.73;2.17;;;;;;;;;;5066295;28;20027;-45
2022/02/08 02:10:32;;;;;;;4.47;1.60;;;;;;;;;;5068258;28;20024;-47
2022/02/08 02:13:04;;;;;;;9.13;1.95;;;;;;;;;;5074799;28;20060;-47
2022/02/08 02:15:32;;;;;;;13.35;1.98;;;;;;;;;;5073683;28;20035;-51
2022/02/08 02:17:58;;;;;;;6.07;1.80;;;;;;;;;;5070450;28;20028;-46
2022/02/08 02:20:24;;;;;;;6.88;1.25;;;;;;;;;;5081277;28;20032;-49
2022/02/08 02:22:50;;;;;;;15.07;2.50;;;;;;;;;;5059655;28;20029;-46
2022/02/08 02:25:20;;;;;;;5.18;1.63;;;;;;;;;;5063459;28;20494;-45
2022/02/08 02:27:48;;;;;;;12.20;2.33;;;;;;;;;;5063742;28;20349;-46
2022/02/08 02:30:14;;;;;;;8.15;1.50;;;;;;;;;;5067031;28;20481;-48
2022/02/08 02:32:40;;;;;;;9.57;1.27;;;;;;;;;;5059711;28;20100;-46
2022/02/08 02:35:07;;;;;;;9.27;1.83;;;;;;;;;;5057800;28;20025;-47
2022/02/08 02:37:33;;;;;;;10.02;1.83;;;;;;;;;;5070176;28;20020;-47
2022/02/08 02:39:59;;;;;;;7.35;1.42;;;;;;;;;;5071074;28;20086;-46
2022/02/08 02:42:27;;;;;;;14.55;2.45;;;;;;;;;;5065018;28;20063;-46
2022/02/08 02:44:53;;;;;;;6.40;1.15;;;;;;;;;;5075022;28;20035;-46
2022/02/08 02:47:19;;;;;;;4.07;1.55;;;;;;;;;;5070853;28;20032;-46
2022/02/08 02:49:45;;;;;;;6.20;1.73;;;;;;;;;;5072563;28;20081;-47
2022/02/08 02:52:11;;;;;;;9.30;2.47;;;;;;;;;;5062888;28;20048;-46
2022/02/08 02:54:37;;;;;;;9.50;1.85;;;;;;;;;;5070633;28;20115;-45
2022/02/08 02:57:03;;;;;;;8.57;1.75;;;;;;;;;;5072767;28;20020;-46
2022/02/08 02:59:31;;;;;;;8.35;2.33;;;;;;;;;;5063532;28;20025;-46
2022/02/08 03:04:45;;;;;;;10.73;1.42;;;;;;;;;;5060989;28;20028;-47
2022/02/08 03:18:25;;;;;;;8.35;2.33;;;;;;;;;;5071038;28;20097;-46
2022/02/08 03:20:51;;;;;;;3.78;1.60;;;;;;;;;;5065746;28;20028;-46
2022/02/08 03:23:17;;;;;;;7.78;2.15;;;;;;;;;;5061981;28;20492;-45
2022/02/08 03:25:43;;;;;;;14.80;2.05;;;;;;;;;;5067782;28;20029;-46
2022/02/08 03:28:09;;;;;;;10.80;2.67;;;;;;;;;;5073280;28;20027;-46
2022/02/08 03:30:35;;;;;;;4.57;2.25;;;;;;;;;;5073296;28;20023;-47
2022/02/08 03:33:01;;;;;;;10.55;2.65;;;;;;;;;;5064052;28;20039;-46
2022/02/08 03:35:27;;;;;;;6.97;2.50;;;;;;;;;;5065413;28;20439;-46
2022/02/08 03:38:00;;;;;;;8.23;2.70;;;;;;;;;;5069327;28;20028;-47
2022/02/08 03:40:40;;;;;;;13.90;2.70;;;;;;;;;;5063718;28;20039;-48
2022/02/08 03:43:28;;;;;;;10.93;2.22;;;;;;;;;;5068340;28;20024;-47
2022/02/08 03:45:57;;;;;;;10.93;2.58;;;;;;;;;;5056174;28;20029;-46
2022/02/08 03:48:23;;;;;;;8.20;1.48;;;;;;;;;;5059050;28;20044;-46
2022/02/08 03:50:54;;;;;;;6.55;2.30;;;;;;;;;;5071200;28;20052;-46
2022/02/08 03:53:21;;;;;;;7.13;1.98;;;;;;;;;;5034452;28;987291;-47
2022/02/08 03:55:48;;;;;;;13.07;3.03;;;;;;;;;;5065873;28;20112;-47
2022/02/08 03:58:14;;;;;;;15.70;1.77;;;;;;;;;;5062601;28;20529;-47
2022/02/08 04:00:57;;;;;;;6.43;1.90;;;;;;;;;;5066633;28;20040;-46
2022/02/08 04:03:26;;;;;;;6.18;1.77;;;;;;;;;;5062199;28;20043;-47
2022/02/08 04:05:54;;;;;;;5.60;1.92;;;;;;;;;;5068202;28;20504;-50
2022/02/08 04:08:21;;;;;;;12.38;1.95;;;;;;;;;;5072633;28;20632;-48
2022/02/08 04:10:47;;;;;;;11.40;1.85;;;;;;;;;;5059865;28;20074;-46
2022/02/08 04:13:19;;;;;;;9.85;2.25;;;;;;;;;;5067985;28;20457;-46
2022/02/08 04:16:25;;;;;;;10.63;2.22;;;;;;;;;;5072747;28;20076;-46
2022/02/08 04:18:52;;;;;;;7.22;1.95;;;;;;;;;;5060018;28;20389;-46
2022/02/08 04:40:51;;;;;;;4.25;1.95;;;;;;;;;;5069394;28;20040;-46
2022/02/08 04:43:34;;;;;;;8.23;1.95;;;;;;;;;;5066914;28;20107;-46
2022/02/08 04:46:10;;;;;;;6.18;1.30;;;;;;;;;;5064719;28;20094;-45
2022/02/08 04:48:51;;;;;;;6.25;1.75;;;;;;;;;;5071008;28;20032;-46
2022/02/08 04:51:20;;;;;;;6.63;1.73;;;;;;;;;;5071770;28;20021;-47
2022/02/08 04:53:55;;;;;;;9.73;2.17;;;;;;;;;;5071738;28;20683;-50
2022/02/08 05:00:10;;;;;;;4.15;1.80;;;;;;;;;;5066803;28;20427;-46
2022/02/08 05:02:21;;;;;;;5.82;1.88;;;;;;;;;;5044372;28;20036;-46
2022/02/08 05:45:13;;;;;;;5.38;2.83;;;;;;;;;;5066529;28;20048;-46
2022/02/08 05:47:42;;;;;;;7.78;3.33;;;;;;;;;;5063905;28;20345;-47
2022/02/08 05:50:22;;;;;;;11.55;3.00;;;;;;;;;;5065640;28;20457;-46
2022/02/08 05:53:02;;;;;;;8.52;3.65;;;;;;;;;;5064404;28;20072;-46
2022/02/08 05:55:28;;;;;;;9.85;4.13;;;;;;;;;;5073821;28;20395;-46
2022/02/08 05:57:54;;;;;;;11.23;3.28;;;;;;;;;;5063176;28;20031;-46
2022/02/08 06:00:27;;;;;;;10.93;3.97;;;;;;;;;;5057320;28;20013;-46
2022/02/08 06:02:55;;;;;;;10.03;3.23;;;;;;;;;;5062283;28;20039;-46
2022/02/08 06:05:21;;;;;;;15.95;3.75;;;;;;;;;;5070259;28;20039;-48
2022/02/08 06:07:47;;;;;;;14.18;3.88;;;;;;;;;;5067923;28;20032;-46
2022/02/08 06:10:13;;;;;;;9.43;4.25;;;;;;;;;;5066810;28;20400;-48
2022/02/08 06:12:48;;;;;;;5.85;2.90;;;;;;;;;;5067780;28;20044;-46
2022/02/08 06:15:17;;;;;;;11.32;3.85;;;;;;;;;;5064410;28;20094;-46
2022/02/08 06:17:43;;;;;;;18.05;4.15;;;;;;;;;;5066635;28;20028;-46
2022/02/08 06:20:09;;;;;;;15.05;4.13;;;;;;;;;;5066029;28;20033;-46
2022/02/08 06:22:36;;;;;;;14.30;4.20;;;;;;;;;;5068071;28;20028;-46
2022/02/08 06:25:03;;;;;;;7.22;3.58;;;;;;;;;;5069052;28;20025;-46
2022/02/08 06:27:30;;;;;;;13.77;3.40;;;;;;;;;;5063920;28;20495;-49
2022/02/08 06:29:57;;;;;;;9.43;4.00;;;;;;;;;;5068350;28;20531;-45
2022/02/08 06:32:23;;;;;;;13.07;4.47;;;;;;;;;;5064460;28;20040;-46
2022/02/08 06:34:49;;;;;;;10.27;4.32;;;;;;;;;;5066828;28;20098;-48
2022/02/08 06:37:18;;;;;;;13.10;4.35;;;;;;;;;;5058928;28;20441;-48
2022/02/08 06:39:44;;;;;;;12.13;3.50;;;;;;;;;;5065138;28;20409;-49
2022/02/08 06:42:11;;;;;;;11.75;3.67;;;;;;;;;;5067809;28;20041;-46
2022/02/08 06:44:37;;;;;;;8.35;3.20;;;;;;;;;;5066328;28;20491;-46
2022/02/08 06:47:03;;;;;;;12.38;4.38;;;;;;;;;;5073964;28;20017;-46
2022/02/08 06:49:29;;;;;;;16.70;4.53;;;;;;;;;;5072766;28;20021;-45
2022/02/08 06:51:55;;;;;;;17.75;4.50;;;;;;;;;;5070604;28;20055;-48
2022/02/08 06:54:21;;;;;;;8.98;4.22;;;;;;;;;;5071025;28;20040;-46
2022/02/08 06:56:48;;;;;;;13.55;3.97;;;;;;;;;;5068746;28;20036;-49
2022/02/08 06:59:17;;;;;;;11.25;4.53;;;;;;;;;;5057811;28;20110;-45
2022/02/08 07:01:43;;;;;;;11.90;4.28;;;;;;;;;;5063029;28;20059;-45
2022/02/08 07:04:14;;;;;;;12.15;3.70;;;;;;;;;;5069302;28;20029;-47
2022/02/08 07:06:40;;;;;;;15.02;4.10;;;;;;;;;;5067334;28;20027;-48
2022/02/08 07:09:06;;;;;;;11.98;4.22;;;;;;;;;;5071392;28;20021;-46
2022/02/08 07:11:32;;;;;;;12.48;4.20;;;;;;;;;;5065651;28;20027;-47
2022/02/08 07:13:59;;;;;;;8.23;3.60;;;;;;;;;;5066056;28;20025;-47
2022/02/08 07:16:25;;;;;;;13.48;4.00;;;;;;;;;;5070239;28;20029;-49
2022/02/08 07:18:51;;;;;;;8.63;4.10;;;;;;;;;;5065713;28;20737;-48
2022/02/08 07:21:17;;;;;;;9.95;4.03;;;;;;;;;;5063214;28;20367;-46
2022/02/08 07:23:43;;;;;;;13.05;4.60;;;;;;;;;;5070090;28;20047;-46
2022/02/08 07:26:09;;;;;;;8.95;3.72;;;;;;;;;;5064642;28;20041;-45
2022/02/08 07:28:41;;;;;;;11.63;4.45;;;;;;;;;;5073228;28;20099;-46
2022/02/08 07:31:16;;;;;;;10.38;4.43;;;;;;;;;;5066792;28;20495;-45
2022/02/08 07:34:06;;;;;;;9.32;4.10;;;;;;;;;;5066989;28;20032;-46
2022/02/08 07:36:41;;;;;;;10.68;3.97;;;;;;;;;;5065254;28;20103;-46
2022/02/08 07:39:10;;;;;;;8.55;4.38;;;;;;;;;;5065000;28;20484;-46
2022/02/08 07:41:38;;;;;;;8.77;4.40;;;;;;;;;;5060300;28;20059;-48
2022/02/08 07:44:05;;;;;;;10.63;4.18;;;;;;;;;;5060953;28;20025;-45
2022/02/08 07:46:31;;;;;;;13.70;4.35;;;;;;;;;;5063524;28;20103;-46
2022/02/08 07:48:58;;;;;;;9.27;4.55;;;;;;;;;;5066465;28;20070;-45
2022/02/08 07:51:25;;;;;;;10.45;5.07;;;;;;;;;;5064069;28;20052;-47
2022/02/08 07:53:51;;;;;;;12.55;4.30;;;;;;;;;;5071053;28;20135;-46
2022/02/08 07:56:17;;;;;;;5.95;3.50;;;;;;;;;;5065305;28;20036;-47
2022/02/08 07:58:43;;;;;;;9.13;4.38;;;;;;;;;;5059293;28;20021;-46
2022/02/08 08:01:09;;;;;;;10.98;3.88;;;;;;;;;;5061652;28;20090;-46
2022/02/08 08:03:40;;;;;;;14.13;4.40;;;;;;;;;;5071334;28;20033;-47
2022/02/08 08:06:06;;;;;;;9.82;4.18;;;;;;;;;;5057781;28;20090;-46
2022/02/08 08:08:32;;;;;;;8.05;3.10;;;;;;;;;;5058392;28;20029;-46
2022/02/08 08:10:59;;;;;;;17.23;4.40;;;;;;;;;;5069639;28;20039;-46
2022/02/08 08:13:26;;;;;;;6.13;3.40;;;;;;;;;;5064276;28;20048;-46
2022/02/08 08:16:00;;;;;;;7.70;3.97;;;;;;;;;;5062657;28;20491;-46
2022/02/08 08:18:44;;;;;;;11.88;4.22;;;;;;;;;;5065447;28;20468;-46
2022/02/08 08:21:10;;;;;;;10.80;4.20;;;;;;;;;;5062443;28;20029;-47
2022/02/08 08:23:36;;;;;;;12.90;3.58;;;;;;;;;;5063772;28;20035;-47
2022/02/08 08:26:02;;;;;;;7.78;4.00;;;;;;;;;;5066326;28;20031;-46
2022/02/08 08:28:28;;;;;;;8.68;4.70;;;;;;;;;;5061575;28;20020;-47
2022/02/08 08:30:56;;;;;;;8.88;3.80;;;;;;;;;;5070698;28;20388;-45
2022/02/08 08:33:22;;;;;;;10.40;4.25;;;;;;;;;;5062406;28;20029;-46
2022/02/08 08:35:48;;;;;;;11.13;4.00;;;;;;;;;;5062858;28;20351;-47
2022/02/08 08:38:17;;;;;;;8.52;4.28;;;;;;;;;;5060903;28;20033;-46
2022/02/08 08:40:53;;;;;;;12.90;4.13;;;;;;;;;;5063418;28;20120;-46
2022/02/08 08:51:03;;;;;;;10.68;4.25;;;;;;;;;;5066298;28;20035;-46
2022/02/08 08:53:32;;;;;;;12.25;3.97;;;;;;;;;;5066294;28;20063;-45
2022/02/08 08:55:58;;;;;;;12.35;3.72;;;;;;;;;;5065296;28;20022;-46
2022/02/08 08:58:24;;;;;;;5.65;3.63;;;;;;;;;;5062495;28;20040;-46
2022/02/08 09:00:50;;;;;;;10.02;4.18;;;;;;;;;;5064501;28;20031;-46
2022/02/08 09:03:16;;;;;;;8.68;3.35;;;;;;;;;;5075164;28;20033;-46
2022/02/08 09:05:43;;;;;;;11.73;4.40;;;;;;;;;;5066568;28;20074;-46
2022/02/08 09:08:09;;;;;;;6.13;3.60;;;;;;;;;;5071866;28;20115;-46
2022/02/08 09:10:47;;;;;;;10.20;4.57;;;;;;;;;;5065446;28;20033;-46
2022/02/08 09:13:25;;;;;;;10.18;3.80;;;;;;;;;;5070502;28;20031;-45
2022/02/08 09:16:04;;;;;;;9.60;3.90;;;;;;;;;;5072221;28;20122;-45
2022/02/08 09:21:35;;;;;;;10.30;4.07;;;;;;;;;;5069144;28;20039;-46
2022/02/08 09:27:19;;;;;;;5.43;3.60;;;;;;;;;;5071969;28;20029;-46
2022/02/08 09:29:48;;;;;;;11.85;4.78;;;;;;;;;;5065087;28;20457;-46
2022/02/08 09:32:17;;;;;;;7.97;3.65;;;;;;;;;;5071710;28;20025;-46
2022/02/08 09:34:44;;;;;;;8.43;4.22;;;;;;;;;;5070680;28;20051;-46
2022/02/08 09:37:15;;;;;;;8.00;3.88;;;;;;;;;;5069230;28;20520;-46
2022/02/08 09:39:42;;;;;;;8.95;4.90;;;;;;;;;;5069717;28;20016;-45
2022/02/08 09:42:08;;;;;;;7.00;3.65;;;;;;;;;;5071163;28;20025;-46
2022/02/08 09:44:35;;;;;;;9.85;3.80;;;;;;;;;;5070959;28;20037;-46
2022/02/08 09:47:06;;;;;;;8.82;3.42;;;;;;;;;;5071397;28;20026;-47
2022/02/08 09:49:32;;;;;;;10.55;4.40;;;;;;;;;;5069457;28;20036;-47
2022/02/08 09:52:00;;;;;;;5.82;3.00;;;;;;;;;;5070851;28;20036;-48
2022/02/08 09:54:26;;;;;;;5.90;3.63;;;;;;;;;;5063413;28;20044;-45
2022/02/08 09:56:52;;;;;;;9.02;3.72;;;;;;;;;;5060514;28;20024;-46
2022/02/08 09:59:18;;;;;;;8.65;3.38;;;;;;;;;;5071480;28;20027;-46
2022/02/08 10:01:55;;;;;;;7.65;3.28;;;;;;;;;;5064944;28;20021;-46
2022/02/08 10:04:21;;;;;;;5.57;3.30;;;;;;;;;;5069754;28;20093;-47
2022/02/08 10:06:47;;;;;;;5.28;2.80;;;;;;;;;;5071600;28;20103;-49
2022/02/08 10:09:13;;;;;;;7.10;3.00;;;;;;;;;;5068717;28;20480;-46
2022/02/08 10:11:44;;;;;;;6.43;3.58;;;;;;;;;;5069249;28;20040;-45
2022/02/08 10:20:31;;;;;;;8.57;4.10;;;;;;;;;;5072117;28;20062;-46
2022/02/08 10:22:40;;;;;;;8.27;3.47;;;;;;;;;;5074996;28;20072;-48
2022/02/08 10:25:07;;;;;;;6.43;3.50;;;;;;;;;;5070724;28;20543;-45
2022/02/08 10:27:41;;;;;;;6.97;3.70;;;;;;;;;;5074131;28;20107;-48
2022/02/08 10:37:38;;;;;;;10.13;3.30;;;;;;;;;;5070174;28;20003;-50
2022/02/08 10:38:15;;;;;;;9.25;3.85;;;;;;;;;;5074739;28;20116;-47
2022/02/08 10:40:42;;;;;;;8.48;4.00;;;;;;;;;;5075183;28;20048;-46
2022/02/08 10:43:09;;;;;;;9.50;4.60;;;;;;;;;;5074299;28;20039;-46
2022/02/08 10:45:37;;;;;;;9.38;4.70;;;;;;;;;;5074728;28;20039;-46
2022/02/08 10:48:06;;;;;;;12.02;5.07;;;;;;;;;;5063236;28;20380;-48
2022/02/08 10:50:34;;;;;;;9.75;4.25;;;;;;;;;;5070725;28;20066;-50
2022/02/08 10:53:02;;;;;;;7.93;4.40;;;;;;;;;;5074302;28;20051;-46
2022/02/08 10:58:08;;;;;;;12.55;5.60;;;;;;;;;;5069205;28;20071;-46
2022/02/08 11:00:40;;;;;;;11.68;5.25;;;;;;;;;;5072536;28;20021;-48
2022/02/08 11:03:13;;;;;;;13.05;5.15;;;;;;;;;;5074620;28;20032;-47
2022/02/08 11:08:17;;;;;;;10.05;4.60;;;;;;;;;;5073593;28;20032;-50
2022/02/08 11:10:59;;;;;;;9.15;4.78;;;;;;;;;;5074058;28;20090;-46
2022/02/08 11:16:13;;;;;;;9.85;5.25;;;;;;;;;;5070993;28;20502;-46
2022/02/08 11:18:46;;;;;;;10.38;5.43;;;;;;;;;;5074491;28;20044;-47
2022/02/08 11:21:23;;;;;;;11.07;5.75;;;;;;;;;;5069554;28;20059;-47
2022/02/08 11:26:29;;;;;;;11.48;4.97;;;;;;;;;;5072252;28;20552;-47
2022/02/08 11:28:55;;;;;;;12.50;5.68;;;;;;;;;;5069809;28;20036;-46
2022/02/08 11:31:29;;;;;;;14.07;6.03;;;;;;;;;;5073302;28;20476;-47
2022/02/08 11:39:01;;;;;;;12.07;5.22;;;;;;;;;;5074279;28;20028;-48
2022/02/08 11:40:29;;;;;;;14.20;6.38;;;;;;;;;;5072496;28;20043;-46
2022/02/08 11:50:42;;;;;;;11.27;5.70;;;;;;;;;;5073462;28;20066;-48
2022/02/08 11:56:22;;;;;;;16.50;5.68;;;;;;;;;;5073272;28;20431;-46
2022/02/08 11:59:18;;;;;;;13.13;6.43;;;;;;;;;;5059287;28;20119;-46
2022/02/08 12:02:02;;;;;;;12.43;6.20;;;;;;;;;;5066839;28;20028;-46
2022/02/08 12:04:41;;;;;;;10.82;5.07;;;;;;;;;;5060549;28;20557;-46
2022/02/08 12:07:14;;;;;;;11.40;6.32;;;;;;;;;;5073514;28;20025;-46
2022/02/08 12:09:56;;;;;;;15.27;5.47;;;;;;;;;;5068979;28;20050;-48
2022/02/08 12:12:58;;;;;;;18.48;6.20;;;;;;;;;;5071917;28;20503;-47
2022/02/08 12:34:40;;;;;;;14.18;6.35;;;;;;;;;;5068242;28;20194;-47
2022/02/08 12:48:33;;;;;;;13.77;6.65;;;;;;;;;;5070345;28;20108;-46
2022/02/08 12:48:53;;;;;;;12.55;5.32;;;;;;;;;;5064805;28;20246;-47
2022/02/08 12:52:11;;;;;;;12.93;5.93;;;;;;;;;;5068927;28;20036;-48
2022/02/08 12:54:23;;;;;;;12.30;6.60;;;;;;;;;;5069939;28;20041;-48
2022/02/08 12:57:47;;;;;;;13.48;6.57;;;;;;;;;;5060557;28;20029;-46
2022/02/08 13:16:47;;;;;;;16.98;6.35;;;;;;;;;;5064684;28;20147;-47
2022/02/08 14:01:38;;;;;;;18.33;6.68;;;;;;;;;;5070068;28;20025;-46
2022/02/08 14:05:52;;;;;;;17.92;6.47;;;;;;;;;;5071799;28;20059;-47
2022/02/08 14:16:16;;;;;;;12.35;6.60;;;;;;;;;;5064523;28;20032;-47
2022/02/08 14:19:07;;;;;;;18.48;6.40;;;;;;;;;;5072332;28;20032;-47
2022/02/08 14:24:13;;;;;;;13.05;6.28;;;;;;;;;;5075859;28;20032;-47
2022/02/08 14:32:24;;;;;;;9.45;5.88;;;;;;;;;;5068125;28;20039;-47
2022/02/08 15:07:58;;;;;;;8.63;3.80;;;;;;;;;;5069903;28;20495;-46
2022/02/08 15:10:31;;;;;;;8.93;4.38;;;;;;;;;;5065508;28;20068;-47
2022/02/08 15:13:00;;;;;;;7.57;4.53;;;;;;;;;;5064390;28;20091;-46
2022/02/08 15:17:52;;;;;;;6.93;4.25;;;;;;;;;;5070472;28;20442;-47
2022/02/08 15:20:19;;;;;;;7.28;5.03;;;;;;;;;;5066731;28;20051;-46
2022/02/08 15:22:45;;;;;;;9.07;3.97;;;;;;;;;;5067441;28;20105;-47
2022/02/08 15:25:13;;;;;;;8.85;5.15;;;;;;;;;;5063033;28;20033;-46
2022/02/08 15:27:40;;;;;;;7.45;4.13;;;;;;;;;;5063493;28;20096;-46
2022/02/08 15:30:07;;;;;;;7.07;4.32;;;;;;;;;;5064766;28;20515;-49
2022/02/08 15:32:35;;;;;;;14.20;4.25;;;;;;;;;;5061020;28;20043;-50
2022/02/08 15:35:01;;;;;;;6.82;4.05;;;;;;;;;;5063042;28;20556;-47
2022/02/08 15:37:30;;;;;;;6.18;3.85;;;;;;;;;;5067878;28;20062;-47
2022/02/08 15:39:57;;;;;;;7.43;3.90;;;;;;;;;;5060383;28;20044;-46
2022/02/08 15:42:30;;;;;;;7.93;4.32;;;;;;;;;;5057074;28;20406;-46
2022/02/08 15:44:57;;;;;;;;;;;;;;;;;;5062466;28;20029;-46
2022/02/08 15:47:23;;;;;;;6.03;4.10;;;;;;;;;;5065213;28;19920;-46
2022/02/08 15:49:58;;;;;;;7.97;4.20;;;;;;;;;;5060566;28;20465;-46
2022/02/08 15:55:16;;;;;;;5.85;3.83;;;;;;;;;;5068751;28;20116;-47
2022/02/08 16:00:36;;;;;;;7.28;4.13;;;;;;;;;;5064964;28;20037;-47
2022/02/08 16:08:40;;;;;;;7.38;3.88;;;;;;;;;;5063537;28;20148;-47
2022/02/08 16:13:55;;;;;;;7.13;4.03;;;;;;;;;;5062470;28;20115;-47
2022/02/08 16:16:45;;;;;;;8.70;4.57;;;;;;;;;;5065604;28;20122;-48
2022/02/08 16:19:29;;;;;;;8.90;5.05;;;;;;;;;;5061484;28;20488;-47
2022/02/08 16:25:02;;;;;;;9.25;5.22;;;;;;;;;;5058077;28;20040;-48
2022/02/08 16:33:06;;;;;;;9.73;5.18;;;;;;;;;;5059123;28;20699;-52
2022/02/08 16:46:56;;;;;;;8.90;5.55;;;;;;;;;;5066684;28;20047;-50
2022/02/08 16:49:37;;;;;;;8.80;4.90;;;;;;;;;;5062965;28;20048;-47
2022/02/08 16:55:01;;;;;;;11.55;6.10;;;;;;;;;;5069044;28;20515;-46
2022/02/08 16:57:38;;;;;;;11.63;5.60;;;;;;;;;;5064336;28;20025;-47
2022/02/08 17:00:06;;;;;;;11.63;5.35;;;;;;;;;;5066534;28;20033;-46
2022/02/08 17:02:33;;;;;;;8.57;5.50;;;;;;;;;;5060595;28;20077;-50
2022/02/08 17:05:01;;;;;;;9.70;5.00;;;;;;;;;;5061969;28;20035;-47
2022/02/08 17:07:27;;;;;;;13.32;5.97;;;;;;;;;;5071262;28;20052;-48
2022/02/08 17:10:01;;;;;;;12.88;5.82;;;;;;;;;;5071674;28;20024;-49
2022/02/08 17:12:38;;;;;;;;;;;;;;;;;;5063585;28;20108;-48
2022/02/08 17:38:14;;;;;;;9.55;5.80;;;;;;;;;;5063037;28;20414;-47
2022/02/08 17:47:49;;;;;;;11.85;6.85;;;;;;;;;;5061802;28;20073;-46
2022/02/08 17:50:17;;;;;;;10.27;6.30;;;;;;;;;;5068228;28;20553;-47
2022/02/08 17:52:43;;;;;;;11.32;6.38;;;;;;;;;;5058370;28;20040;-49
2022/02/08 17:55:10;;;;;;;11.95;6.55;;;;;;;;;;5059426;28;20031;-49
2022/02/08 17:57:36;;;;;;;10.85;6.03;;;;;;;;;;5061994;28;20388;-47
2022/02/08 18:00:03;;;;;;;13.40;6.03;;;;;;;;;;5061430;28;20021;-46
2022/02/08 18:02:29;;;;;;;14.02;6.80;;;;;;;;;;5063780;28;20029;-46
2022/02/08 18:04:57;;;;;;;11.55;6.35;;;;;;;;;;5063559;28;20028;-46
2022/02/08 18:07:24;;;;;;;10.85;6.47;;;;;;;;;;5064849;28;20100;-50
2022/02/08 18:09:51;;;;;;;11.77;7.15;;;;;;;;;;5064795;28;20460;-51
2022/02/08 18:12:22;;;;;;;13.23;6.72;;;;;;;;;;5066228;28;20032;-46
2022/02/08 18:14:54;;;;;;;9.93;5.68;;;;;;;;;;5063003;28;20028;-47
2022/02/08 18:17:26;;;;;;;12.32;6.35;;;;;;;;;;5060131;28;20566;-47
2022/02/08 18:20:02;;;;;;;13.02;7.10;;;;;;;;;;5063426;28;20481;-46
2022/02/08 18:22:51;;;;;;;13.85;6.82;;;;;;;;;;5065784;28;20028;-46
2022/02/08 18:55:11;;;;;;;13.90;7.40;;;;;;;;;;5061226;28;20050;-46
2022/02/08 19:21:59;;;;;;;16.60;9.02;;;;;;;;;;5067862;28;20040;-51
2022/02/08 19:24:25;;;;;;;16.40;8.40;;;;;;;;;;5071668;28;20031;-49
2022/02/08 19:26:54;;;;;;;17.27;9.13;;;;;;;;;;5067835;28;20024;-47
2022/02/08 19:29:21;;;;;;;23.90;8.85;;;;;;;;;;5066170;28;20033;-47
2022/02/08 19:31:47;;;;;;;17.05;8.93;;;;;;;;;;5066377;28;20028;-48
2022/02/08 19:34:14;;;;;;;17.73;8.98;;;;;;;;;;5067042;28;20107;-50
2022/02/08 19:36:42;;;;;;;17.88;9.07;;;;;;;;;;5067106;28;20050;-48
2022/02/08 19:39:08;;;;;;;21.65;9.38;;;;;;;;;;5063657;28;20039;-50
2022/02/08 19:41:35;;;;;;;20.98;10.00;;;;;;;;;;5067656;28;20024;-46
2022/02/08 19:44:01;;;;;;;21.50;10.07;;;;;;;;;;5066156;28;20032;-51
2022/02/08 19:46:27;;;;;;;18.95;9.52;;;;;;;;;;5065236;28;20029;-47
2022/02/08 19:48:54;;;;;;;18.35;8.98;;;;;;;;;;5073648;28;20869;-46
2022/02/08 19:51:20;;;;;;;16.42;8.35;;;;;;;;;;5070589;28;20043;-48
2022/02/08 19:53:48;;;;;;;18.80;9.10;;;;;;;;;;5065732;28;20097;-48
2022/02/08 19:58:50;;;;;;;18.48;8.38;;;;;;;;;;5072054;28;20031;-51
2022/02/08 20:01:23;;;;;;;16.80;9.18;;;;;;;;;;5076441;28;20413;-47
2022/02/08 20:03:57;;;;;;;18.77;9.38;;;;;;;;;;5073244;28;20368;-47
2022/02/08 20:06:23;;;;;;;18.30;9.20;;;;;;;;;;5060288;28;20365;-49
2022/02/08 20:08:49;;;;;;;17.23;9.10;;;;;;;;;;5066508;28;20082;-47
2022/02/08 20:11:15;;;;;;;22.20;9.70;;;;;;;;;;5061052;28;20032;-50
2022/02/08 20:13:50;;;;;;;19.17;9.07;;;;;;;;;;5070046;28;20031;-46
2022/02/08 20:16:17;;;;;;;19.40;9.45;;;;;;;;;;5062117;28;20029;-48
2022/02/08 20:18:45;;;;;;;19.25;9.77;;;;;;;;;;5070860;28;20040;-47
2022/02/08 20:21:11;;;;;;;19.10;9.30;;;;;;;;;;5065871;28;20385;-51
2022/02/08 20:23:38;;;;;;;20.50;10.55;;;;;;;;;;5062406;28;20033;-47
2022/02/08 20:26:05;;;;;;;18.35;9.30;;;;;;;;;;5064079;28;20108;-48
2022/02/08 20:28:48;;;;;;;21.35;10.15;;;;;;;;;;5072452;28;20032;-48
2022/02/08 20:31:15;;;;;;;20.80;10.38;;;;;;;;;;5065578;28;20090;-47
2022/02/08 20:33:41;;;;;;;23.05;10.90;;;;;;;;;;5062513;28;20112;-49
2022/02/08 20:36:07;;;;;;;24.40;10.98;;;;;;;;;;5070186;28;20100;-52
2022/02/08 20:38:33;;;;;;;21.38;10.30;;;;;;;;;;5072726;28;20107;-49
2022/02/08 20:40:59;;;;;;;20.38;10.35;;;;;;;;;;5059615;28;20036;-47
2022/02/08 20:43:28;;;;;;;23.00;10.52;;;;;;;;;;5063287;28;20025;-49
2022/02/08 20:45:54;;;;;;;26.80;11.00;;;;;;;;;;5068066;28;20032;-46
2022/02/08 20:48:25;;;;;;;21.20;10.38;;;;;;;;;;5062343;28;20033;-49
2022/02/08 20:50:53;;;;;;;25.08;11.77;;;;;;;;;;5059786;28;20039;-47
2022/02/08 20:53:34;;;;;;;24.35;10.93;;;;;;;;;;5072195;28;20052;-46
2022/02/08 20:56:09;;;;;;;21.80;10.65;;;;;;;;;;5063395;28;20479;-47
2022/02/08 20:59:06;;;;;;;25.40;11.88;;;;;;;;;;5062805;28;20024;-47
2022/02/08 21:01:24;;;;;;;22.20;9.68;;;;;;;;;;5065116;28;20036;-50
2022/02/08 21:04:00;;;;;;;23.10;10.75;;;;;;;;;;5069690;28;20028;-46
2022/02/08 21:06:28;;;;;;;24.23;11.45;;;;;;;;;;5069903;28;20456;-48
2022/02/08 21:08:54;;;;;;;23.92;10.70;;;;;;;;;;5056467;28;20033;-47
2022/02/08 21:11:27;;;;;;;21.17;10.32;;;;;;;;;;5063570;28;20033;-49
2022/02/08 21:14:04;;;;;;;23.15;10.45;;;;;;;;;;5066626;28;20024;-48
2022/02/08 21:16:31;;;;;;;22.00;10.13;;;;;;;;;;5066076;28;20035;-50
2022/02/08 21:18:58;;;;;;;20.50;9.82;;;;;;;;;;5069520;28;20114;-50
2022/02/08 21:21:24;;;;;;;20.58;9.65;;;;;;;;;;5057918;28;20033;-47
2022/02/08 21:23:52;;;;;;;24.08;11.48;;;;;;;;;;5065802;28;20118;-48
2022/02/08 21:26:24;;;;;;;22.48;10.63;;;;;;;;;;5081470;28;20036;-49
2022/02/08 21:46:43;;;;;;;20.02;9.95;;;;;;;;;;5060274;28;20498;-48
2022/02/08 21:47:59;;;;;;;24.02;11.00;;;;;;;;;;5067388;28;20485;-49